createdAt,value
2022-09-30T00:01:59.131Z,5.97
2022-09-30T00:07:19.071Z,5.95
2022-09-30T00:09:48.070Z,5.97
2022-09-30T00:12:15.081Z,5.85
2022-09-30T00:14:43.322Z,5.60
2022-09-30T00:17:11.114Z,5.45
2022-09-30T00:19:39.130Z,5.65
2022-09-30T00:22:32.304Z,6.20
2022-09-30T00:24:59.032Z,5.40
2022-09-30T00:27:27.049Z,5.68
2022-09-30T00:30:00.166Z,5.75
2022-09-30T00:32:27.085Z,6.90
2022-09-30T00:35:22.524Z,5.70
2022-09-30T00:37:51.268Z,6.28
2022-09-30T00:40:20.514Z,6.53
2022-09-30T00:42:47.191Z,6.15
2022-09-30T00:45:18.006Z,6.10
2022-09-30T00:47:56.430Z,5.60
2022-09-30T00:50:37.735Z,5.18
2022-09-30T00:53:10.531Z,6.10
2022-09-30T00:56:03.846Z,6.00
2022-09-30T00:58:36.414Z,6.22
2022-09-30T01:01:03.465Z,6.15
2022-09-30T01:03:34.137Z,5.97
2022-09-30T01:06:02.624Z,6.35
2022-09-30T01:08:33.705Z,5.93
2022-09-30T01:13:57.185Z,6.15
2022-09-30T01:16:47.742Z,5.30
2022-09-30T01:19:23.034Z,5.38
2022-09-30T01:22:03.445Z,5.60
2022-09-30T01:25:13.955Z,5.53
2022-09-30T01:27:50.103Z,5.25
2022-09-30T01:30:35.613Z,5.65
2022-09-30T01:33:20.393Z,5.65
2022-09-30T01:35:58.268Z,5.45
2022-09-30T01:38:47.308Z,4.55
2022-09-30T01:41:28.952Z,4.47
2022-09-30T01:44:33.297Z,5.95
2022-09-30T01:47:17.587Z,5.65
2022-09-30T01:50:20.365Z,5.35
2022-09-30T01:53:08.753Z,5.00
2022-09-30T01:55:45.721Z,4.90
2022-09-30T01:58:22.651Z,5.13
2022-09-30T02:00:55.967Z,5.30
2022-09-30T02:03:35.399Z,5.20
2022-09-30T02:06:08.523Z,5.18
2022-09-30T02:08:53.259Z,5.60
2022-09-30T02:11:25.845Z,5.15
2022-09-30T02:14:17.014Z,6.25
2022-09-30T02:17:43.249Z,6.28
2022-09-30T02:20:24.214Z,6.32
2022-09-30T02:23:07.997Z,6.00
2022-09-30T02:26:15.250Z,5.28
2022-09-30T02:28:52.540Z,5.93
2022-09-30T02:31:26.032Z,5.88
2022-09-30T02:34:09.371Z,6.68
2022-09-30T02:37:26.254Z,6.28
2022-09-30T02:40:12.317Z,6.72
2022-09-30T02:42:46.314Z,6.60
2022-09-30T02:45:22.408Z,7.45
2022-09-30T02:47:57.437Z,7.07
2022-09-30T02:50:35.139Z,6.93
2022-09-30T02:53:21.889Z,7.03
2022-09-30T02:56:15.426Z,6.70
2022-09-30T02:58:43.641Z,6.80
2022-09-30T03:01:14.249Z,6.57
2022-09-30T03:04:07.956Z,7.15
2022-09-30T03:06:36.032Z,7.25
2022-09-30T03:09:09.840Z,6.85
2022-09-30T03:12:10.128Z,6.90
2022-09-30T03:14:55.386Z,7.35
2022-09-30T03:17:43.885Z,6.72
2022-09-30T03:20:19.877Z,7.18
2022-09-30T03:23:44.860Z,7.45
2022-09-30T03:26:36.234Z,7.38
2022-09-30T03:29:29.192Z,7.18
2022-09-30T03:32:42.791Z,7.15
2022-09-30T03:38:49.506Z,6.85
2022-09-30T03:41:37.424Z,8.80
2022-09-30T03:44:40.204Z,7.93
2022-09-30T03:47:11.132Z,7.13
2022-09-30T03:49:52.554Z,8.07
2022-09-30T03:52:21.658Z,6.85
2022-09-30T03:55:27.569Z,7.32
2022-09-30T03:57:55.107Z,7.82
2022-09-30T04:00:32.516Z,7.63
2022-09-30T04:03:05.018Z,6.72
2022-09-30T04:05:57.133Z,6.70
2022-09-30T04:08:25.149Z,7.35
2022-09-30T04:10:58.096Z,7.72
2022-09-30T04:13:25.035Z,7.40
2022-09-30T04:15:54.632Z,7.43
2022-09-30T04:18:48.309Z,7.75
2022-09-30T04:21:21.320Z,8.55
2022-09-30T04:23:49.499Z,8.00
2022-09-30T04:26:23.176Z,7.25
2022-09-30T04:28:52.468Z,7.68
2022-09-30T04:31:45.315Z,7.90
2022-09-30T04:34:13.080Z,8.00
2022-09-30T04:36:41.265Z,8.10
2022-09-30T04:39:09.394Z,8.00
2022-09-30T04:41:38.374Z,8.57
2022-09-30T04:44:07.896Z,8.77
2022-09-30T04:49:34.101Z,8.38
2022-09-30T04:52:01.244Z,8.73
2022-09-30T04:54:29.044Z,8.32
2022-09-30T04:56:57.077Z,8.45
2022-09-30T04:59:25.051Z,8.57
2022-09-30T05:01:57.079Z,8.18
2022-09-30T05:04:33.432Z,8.63
2022-09-30T05:07:26.848Z,7.70
2022-09-30T05:10:00.067Z,8.27
2022-09-30T05:12:27.058Z,7.78
2022-09-30T05:17:49.325Z,7.38
2022-09-30T05:20:20.923Z,7.72
2022-09-30T05:22:55.097Z,8.27
2022-09-30T05:25:32.073Z,7.45
2022-09-30T05:27:59.037Z,8.07
2022-09-30T05:30:27.274Z,7.63
2022-09-30T05:32:56.218Z,8.05
2022-09-30T05:35:30.293Z,7.88
2022-09-30T05:38:02.906Z,7.75
2022-09-30T05:40:32.163Z,8.07
2022-09-30T05:43:25.102Z,7.63
2022-09-30T05:45:57.534Z,7.82
2022-09-30T05:48:25.798Z,7.70
2022-09-30T05:50:57.784Z,7.60
2022-09-30T05:53:25.882Z,7.70
2022-09-30T05:55:53.256Z,7.72
2022-09-30T06:01:15.272Z,7.78
2022-09-30T06:03:49.460Z,8.43
2022-09-30T06:06:17.164Z,8.60
2022-09-30T06:08:45.600Z,9.00
2022-09-30T06:11:18.697Z,8.60
2022-09-30T06:13:49.923Z,9.20
2022-09-30T06:16:19.381Z,7.82
2022-09-30T06:18:47.378Z,7.85
2022-09-30T06:21:17.550Z,8.77
2022-09-30T06:23:45.098Z,8.77
2022-09-30T06:26:14.474Z,10.20
2022-09-30T06:28:42.139Z,10.02
2022-09-30T06:31:15.872Z,9.30
2022-09-30T06:33:43.325Z,9.70
2022-09-30T06:36:11.139Z,9.23
2022-09-30T06:38:50.561Z,8.85
2022-09-30T06:41:19.237Z,9.50
2022-09-30T06:43:51.499Z,9.25
2022-09-30T06:47:06.689Z,9.43
2022-09-30T06:49:48.912Z,9.88
2022-09-30T06:52:17.097Z,11.05
2022-09-30T06:55:09.350Z,10.63
2022-09-30T06:57:37.046Z,11.02
2022-09-30T07:00:05.905Z,11.63
2022-09-30T07:02:34.474Z,10.85
2022-09-30T07:05:07.501Z,10.88
2022-09-30T07:07:36.622Z,11.52
2022-09-30T07:10:05.529Z,11.02
2022-09-30T07:12:33.060Z,11.70
2022-09-30T07:15:09.210Z,12.02
2022-09-30T07:17:41.059Z,12.20
2022-09-30T07:20:09.237Z,11.93
2022-09-30T07:22:37.092Z,12.13
2022-09-30T07:25:05.512Z,11.38
2022-09-30T07:27:34.056Z,11.90
2022-09-30T07:30:09.494Z,12.18
2022-09-30T07:32:39.065Z,11.77
2022-09-30T07:35:12.559Z,10.95
2022-09-30T07:37:41.056Z,12.95
2022-09-30T07:43:01.842Z,12.43
2022-09-30T07:45:54.713Z,12.25
2022-09-30T07:48:41.933Z,12.43
2022-09-30T07:51:24.763Z,12.90
2022-09-30T07:53:55.799Z,12.50
2022-09-30T08:02:16.863Z,12.55
2022-09-30T08:04:45.345Z,12.95
2022-09-30T08:07:15.624Z,13.93
2022-09-30T08:09:43.521Z,15.13
2022-09-30T08:12:11.075Z,13.43
2022-09-30T08:14:44.070Z,13.75
2022-09-30T08:17:11.074Z,13.35
2022-09-30T08:19:41.384Z,14.18
2022-09-30T08:25:03.248Z,13.50
2022-09-30T08:27:56.979Z,13.55
2022-09-30T08:30:50.122Z,13.68
2022-09-30T08:33:45.139Z,12.35
2022-09-30T08:36:17.719Z,12.23
2022-09-30T08:42:13.903Z,10.50
2022-09-30T08:45:10.493Z,10.20
2022-09-30T08:47:56.152Z,10.07
2022-09-30T08:50:47.961Z,9.48
2022-09-30T08:53:24.113Z,7.25
2022-09-30T08:55:54.470Z,7.75
2022-09-30T08:58:36.821Z,7.50
2022-09-30T09:04:25.292Z,7.50
2022-09-30T09:07:04.036Z,7.22
2022-09-30T09:09:47.116Z,7.43
2022-09-30T09:13:02.527Z,6.53
2022-09-30T09:15:51.129Z,5.50
2022-09-30T09:18:39.721Z,5.78
2022-09-30T09:21:41.606Z,5.40
2022-09-30T09:24:27.861Z,4.68
2022-09-30T09:26:56.967Z,3.78
2022-09-30T09:29:43.384Z,3.70
2022-09-30T09:32:39.786Z,3.20
2022-09-30T09:35:15.624Z,2.95
2022-09-30T09:38:24.793Z,1.85
2022-09-30T09:44:37.824Z,1.70
2022-09-30T09:47:10.326Z,1.60
2022-09-30T09:49:41.750Z,1.70
2022-09-30T09:52:15.078Z,1.52
2022-09-30T09:54:45.481Z,1.55
2022-09-30T09:57:24.835Z,1.40
2022-09-30T10:00:42.080Z,1.50
2022-09-30T10:03:24.573Z,1.58
2022-09-30T10:06:17.064Z,1.50
2022-09-30T10:08:56.612Z,1.33
2022-09-30T10:11:36.010Z,1.65
2022-09-30T10:14:03.101Z,1.48
2022-09-30T10:16:35.483Z,1.40
2022-09-30T10:19:09.463Z,1.10
2022-09-30T10:21:37.110Z,1.25
2022-09-30T10:24:26.633Z,1.20
2022-09-30T10:26:59.106Z,1.40
2022-09-30T10:29:34.994Z,1.30
2022-09-30T10:32:07.544Z,1.50
2022-09-30T10:34:43.703Z,1.35
2022-09-30T10:37:16.149Z,1.48
2022-09-30T10:39:44.644Z,1.60
2022-09-30T10:42:35.745Z,1.20
2022-09-30T10:45:06.332Z,1.30
2022-09-30T10:47:36.980Z,1.85
2022-09-30T10:50:29.259Z,1.90
2022-09-30T10:53:04.761Z,1.60
2022-09-30T10:55:47.691Z,2.20
2022-09-30T11:01:46.571Z,1.70
2022-09-30T11:04:27.159Z,1.50
2022-09-30T11:07:02.097Z,1.65
2022-09-30T11:09:38.753Z,1.20
2022-09-30T11:15:20.483Z,1.58
2022-09-30T11:17:54.718Z,1.48
2022-09-30T11:20:44.472Z,1.50
2022-09-30T11:23:38.033Z,1.45
2022-09-30T11:26:14.153Z,1.48
2022-09-30T11:28:50.242Z,1.75
2022-09-30T11:34:38.245Z,1.50
2022-09-30T11:44:07.762Z,1.42
2022-09-30T11:46:53.338Z,1.13
2022-09-30T11:49:45.591Z,1.10
2022-09-30T11:52:35.337Z,1.00
2022-09-30T11:55:14.373Z,1.10
2022-09-30T11:57:47.995Z,0.98
2022-09-30T12:00:18.037Z,0.93
2022-09-30T12:02:54.321Z,1.08
2022-09-30T12:08:59.751Z,1.02
2022-09-30T12:11:36.097Z,1.10
2022-09-30T12:14:19.766Z,1.00
2022-09-30T12:16:48.643Z,1.02
2022-09-30T12:19:42.091Z,1.00
2022-09-30T12:22:18.001Z,1.30
2022-09-30T12:24:47.836Z,1.00
2022-09-30T12:27:41.657Z,1.35
2022-09-30T12:30:20.455Z,1.40
2022-09-30T12:33:26.198Z,1.52
2022-09-30T12:39:42.577Z,1.63
2022-09-30T12:42:48.243Z,1.90
2022-09-30T12:45:30.849Z,1.88
2022-09-30T12:48:02.863Z,2.15
2022-09-30T12:50:42.772Z,2.13
2022-09-30T12:53:22.694Z,2.63
2022-09-30T12:55:52.357Z,2.88
2022-09-30T12:58:34.164Z,2.42
2022-09-30T13:01:13.187Z,2.88
2022-09-30T13:03:53.194Z,3.00
2022-09-30T13:06:22.091Z,3.15
2022-09-30T13:09:20.854Z,2.70
2022-09-30T13:12:29.211Z,2.58
2022-09-30T13:15:30.413Z,2.85
2022-09-30T13:21:21.348Z,2.85
2022-09-30T13:23:56.263Z,2.20
2022-09-30T13:26:40.316Z,2.42
2022-09-30T13:29:35.256Z,3.08
2022-09-30T13:32:10.610Z,2.00
2022-09-30T13:35:00.629Z,2.30
2022-09-30T13:37:41.320Z,2.30
2022-09-30T13:40:50.191Z,2.15
2022-09-30T13:43:40.413Z,2.22
2022-09-30T13:46:27.316Z,2.63
2022-09-30T13:49:04.701Z,2.50
2022-09-30T13:51:46.060Z,2.00
2022-09-30T13:54:39.050Z,2.58
2022-09-30T13:57:15.481Z,2.20
2022-09-30T14:00:00.176Z,2.67
2022-09-30T14:02:45.334Z,2.78
2022-09-30T14:05:35.265Z,3.80
2022-09-30T14:08:34.825Z,2.47
2022-09-30T14:11:24.570Z,2.72
2022-09-30T14:14:42.547Z,3.38
2022-09-30T14:17:27.450Z,3.10
2022-09-30T14:20:09.244Z,3.60
2022-09-30T14:22:37.248Z,3.85
2022-09-30T14:25:22.412Z,6.05
2022-09-30T14:28:04.424Z,4.18
2022-09-30T14:31:13.016Z,3.20
2022-09-30T14:33:45.267Z,4.72
2022-09-30T14:36:19.622Z,2.95
2022-09-30T14:39:21.022Z,3.58
2022-09-30T14:41:58.519Z,3.45
2022-09-30T14:44:29.749Z,3.35
2022-09-30T14:47:22.829Z,3.45
2022-09-30T14:49:51.086Z,3.08
2022-09-30T14:52:45.333Z,3.45
2022-09-30T14:55:49.142Z,3.33
2022-09-30T14:58:26.635Z,3.67
2022-09-30T15:01:07.136Z,3.75
2022-09-30T15:03:41.989Z,3.30
2022-09-30T15:09:28.926Z,3.00
2022-09-30T15:11:59.026Z,3.40
2022-09-30T15:14:27.556Z,3.05
2022-09-30T15:17:29.782Z,3.30
2022-09-30T15:19:58.355Z,3.22
2022-09-30T15:22:27.200Z,3.17
2022-09-30T15:24:57.286Z,2.78
2022-09-30T15:27:30.086Z,3.30
2022-09-30T15:30:29.138Z,3.25
2022-09-30T15:33:02.285Z,2.92
2022-09-30T15:35:29.694Z,3.13
2022-09-30T15:38:30.208Z,3.60
2022-09-30T15:41:16.082Z,3.42
2022-09-30T15:43:51.860Z,2.95
2022-09-30T15:46:33.291Z,3.00
2022-09-30T15:49:03.447Z,3.08
2022-09-30T15:51:40.131Z,3.35
2022-09-30T15:54:20.719Z,3.50
2022-09-30T15:56:49.280Z,3.30
2022-09-30T15:59:17.039Z,3.28
2022-09-30T16:01:46.805Z,3.58
2022-09-30T16:04:18.988Z,3.10
2022-09-30T16:07:15.845Z,3.50
2022-09-30T16:09:48.413Z,3.47
2022-09-30T16:12:20.265Z,3.80
2022-09-30T16:14:59.946Z,3.92
2022-09-30T16:17:38.358Z,3.22
2022-09-30T16:20:25.314Z,3.38
2022-09-30T16:22:55.323Z,3.60
2022-09-30T16:25:49.643Z,3.42
2022-09-30T16:28:17.201Z,3.22
2022-09-30T16:30:50.364Z,3.60
2022-09-30T16:33:17.962Z,3.35
2022-09-30T16:35:47.430Z,3.40
2022-09-30T16:38:24.086Z,4.28
2022-09-30T16:40:51.095Z,3.25
2022-09-30T16:43:20.444Z,4.03
2022-09-30T16:45:50.275Z,3.75
2022-09-30T16:51:40.250Z,3.50
2022-09-30T16:54:10.363Z,3.60
2022-09-30T16:56:37.649Z,4.03
2022-09-30T16:59:13.273Z,4.25
2022-09-30T17:01:45.183Z,3.92
2022-09-30T17:04:22.103Z,4.28
2022-09-30T17:06:54.095Z,4.90
2022-09-30T17:09:21.176Z,5.40
2022-09-30T17:12:19.741Z,4.70
2022-09-30T17:14:47.130Z,4.88
2022-09-30T17:20:07.512Z,5.00
2022-09-30T17:22:35.220Z,5.40
2022-09-30T17:25:08.769Z,5.50
2022-09-30T17:27:38.310Z,5.78
2022-09-30T17:30:38.186Z,5.63
2022-09-30T17:33:11.129Z,6.03
2022-09-30T17:36:06.019Z,5.60
2022-09-30T17:38:34.097Z,5.60
2022-09-30T17:41:19.825Z,6.22
2022-09-30T17:43:47.117Z,7.57
2022-09-30T17:46:18.734Z,11.88
2022-09-30T17:48:47.997Z,19.83
2022-09-30T17:51:16.461Z,24.42
2022-09-30T17:53:44.200Z,22.58
2022-09-30T17:56:16.907Z,17.52
2022-09-30T17:58:57.720Z,10.75
2022-09-30T18:01:25.203Z,8.40
2022-09-30T18:03:53.445Z,7.45
2022-09-30T18:06:21.137Z,7.72
2022-09-30T18:08:50.438Z,8.13
2022-09-30T18:11:26.049Z,8.15
2022-09-30T18:14:00.059Z,6.88
2022-09-30T18:16:30.682Z,6.57
2022-09-30T18:19:10.131Z,6.53
2022-09-30T18:21:37.908Z,6.97
2022-09-30T18:24:06.605Z,6.13
2022-09-30T18:26:44.109Z,6.88
2022-09-30T18:29:11.029Z,6.63
2022-09-30T18:31:43.950Z,6.50
2022-09-30T18:34:13.187Z,6.85
2022-09-30T18:36:47.496Z,7.70
2022-09-30T18:39:15.546Z,6.85
2022-09-30T18:41:48.924Z,6.10
2022-09-30T18:44:17.040Z,5.95
2022-09-30T18:52:55.028Z,6.57
2022-09-30T18:55:27.943Z,6.80
2022-09-30T18:57:55.500Z,5.80
2022-09-30T19:00:23.311Z,5.60
2022-09-30T19:02:52.576Z,5.80
2022-09-30T19:05:21.625Z,5.40
2022-09-30T19:07:49.205Z,5.80
2022-09-30T19:10:22.248Z,6.10
2022-09-30T19:12:49.574Z,6.60
2022-09-30T19:18:10.411Z,5.20
2022-09-30T19:20:37.965Z,6.13
2022-09-30T19:23:08.881Z,5.43
2022-09-30T19:28:31.530Z,6.05
2022-09-30T19:31:00.456Z,5.82
2022-09-30T19:33:27.270Z,6.35
2022-09-30T19:36:14.866Z,6.35
2022-09-30T19:38:45.379Z,6.80
2022-09-30T19:41:15.809Z,5.97
2022-09-30T19:43:46.487Z,6.65
2022-09-30T19:46:26.542Z,5.95
2022-09-30T19:48:56.333Z,5.57
2022-09-30T19:51:23.812Z,5.68
2022-09-30T19:54:04.092Z,5.57
2022-09-30T19:56:35.355Z,5.63
2022-09-30T19:59:29.218Z,6.22
2022-09-30T20:01:57.473Z,5.45
2022-09-30T20:04:25.113Z,5.95
2022-09-30T20:07:17.065Z,5.97
2022-09-30T20:09:46.548Z,5.55
2022-09-30T20:12:15.085Z,5.00
2022-09-30T20:15:01.423Z,5.47
2022-09-30T20:17:29.419Z,5.47
2022-09-30T20:20:34.463Z,4.85
2022-09-30T20:23:03.527Z,5.03
2022-09-30T20:25:31.285Z,4.97
2022-09-30T20:28:23.285Z,5.00
2022-09-30T20:30:51.055Z,4.95
2022-09-30T20:33:20.615Z,5.00
2022-09-30T20:35:49.186Z,4.50
2022-09-30T20:38:29.840Z,5.00
2022-09-30T20:41:02.579Z,5.50
2022-09-30T20:43:33.074Z,5.00
2022-09-30T20:46:03.383Z,5.20
2022-09-30T20:48:33.544Z,5.32
2022-09-30T20:51:10.410Z,4.47
2022-09-30T20:53:39.714Z,4.82
2022-09-30T20:56:09.260Z,5.03
2022-09-30T20:58:45.261Z,5.10
2022-09-30T21:01:14.768Z,5.35
2022-09-30T21:03:44.819Z,5.13
2022-09-30T21:06:13.074Z,5.00
2022-09-30T21:09:22.109Z,5.28
2022-09-30T21:12:19.288Z,5.40
2022-09-30T21:14:47.091Z,5.45
2022-09-30T21:17:15.176Z,5.50
2022-09-30T21:19:47.089Z,5.82
2022-09-30T21:22:15.133Z,5.72
2022-09-30T21:24:48.121Z,5.63
2022-09-30T21:27:45.616Z,5.97
2022-09-30T21:30:13.360Z,5.88
2022-09-30T21:32:45.307Z,5.13
2022-09-30T21:35:18.087Z,5.43
2022-09-30T21:37:53.525Z,5.88
2022-09-30T21:40:21.031Z,5.85
2022-09-30T21:43:14.206Z,5.80
2022-09-30T21:48:34.283Z,5.65
2022-09-30T21:51:02.156Z,5.70
2022-09-30T21:53:29.409Z,5.35
2022-09-30T21:55:58.941Z,5.35
2022-09-30T21:58:29.020Z,5.93
2022-09-30T22:01:00.015Z,5.70
2022-09-30T22:03:30.808Z,5.63
2022-09-30T22:06:00.441Z,5.70
2022-09-30T22:08:32.919Z,5.38
2022-09-30T22:11:01.324Z,5.00
2022-09-30T22:13:29.406Z,5.63
2022-09-30T22:16:03.413Z,5.55
2022-09-30T22:21:23.549Z,5.30
2022-09-30T22:23:51.083Z,5.90
2022-09-30T22:29:35.669Z,4.90
2022-09-30T22:32:29.044Z,5.13
2022-09-30T22:35:15.453Z,4.90
2022-09-30T22:38:01.740Z,5.45
2022-09-30T22:40:29.126Z,4.88
2022-09-30T22:42:57.812Z,5.07
2022-09-30T22:45:31.110Z,4.55
2022-09-30T22:47:59.064Z,4.53
2022-09-30T22:50:28.698Z,4.82
2022-09-30T22:52:58.020Z,5.13
2022-09-30T22:55:31.017Z,5.22
2022-09-30T22:57:59.026Z,5.10
2022-09-30T23:00:27.062Z,5.35
2022-09-30T23:02:59.043Z,5.53
2022-09-30T23:05:27.255Z,4.20
2022-09-30T23:08:19.079Z,5.10
2022-09-30T23:10:49.833Z,5.13
2022-09-30T23:13:20.199Z,4.93
2022-09-30T23:15:47.832Z,4.95
2022-09-30T23:18:18.658Z,4.93
2022-09-30T23:21:18.359Z,4.55
2022-09-30T23:23:46.497Z,4.43
2022-09-30T23:26:23.805Z,4.55
2022-09-30T23:28:52.229Z,4.15
2022-09-30T23:31:24.196Z,3.97
2022-09-30T23:33:53.358Z,4.25
2022-09-30T23:36:29.531Z,4.30
2022-09-30T23:39:06.762Z,4.07
2022-09-30T23:41:35.794Z,3.92
2022-09-30T23:44:04.365Z,3.88
2022-09-30T23:46:37.151Z,4.10
2022-09-30T23:49:05.110Z,4.28
2022-09-30T23:51:38.136Z,4.25
2022-09-30T23:54:05.339Z,4.35
2022-09-30T23:56:33.092Z,4.15
2022-09-30T23:59:01.043Z,3.90
